sensor_id;sensor_type;location;lat;lon;timestamp;pressure;altitude;pressure_sealevel;temperature;humidity
25560;BME280;13450;49.374;8.584;2023-01-31T00:00:52;101527.31;;;2.31;100.00
25560;BME280;13450;49.374;8.584;2023-01-31T00:03:18;101529.09;;;2.30;100.00
25560;BME280;13450;49.374;8.584;2023-01-31T00:05:43;101524.88;;;2.28;100.00
25560;BME280;13450;49.374;8.584;2023-01-31T00:08:09;101516.22;;;2.26;100.00
25560;BME280;13450;49.374;8.584;2023-01-31T00:10:34;101526.78;;;2.26;100.00
25560;BME280;13450;49.374;8.584;2023-01-31T00:12:59;101532.97;;;2.25;100.00
25560;BME280;13450;49.374;8.584;2023-01-31T00:15:25;101515.53;;;2.22;100.00
25560;BME280;13450;49.374;8.584;2023-01-31T00:17:50;101521.69;;;2.22;100.00
25560;BME280;13450;49.374;8.584;2023-01-31T00:20:16;101532.16;;;2.24;100.00
25560;BME280;13450;49.374;8.584;2023-01-31T00:22:42;101534.03;;;2.22;100.00
25560;BME280;13450;49.374;8.584;2023-01-31T00:25:08;101530.56;;;2.21;100.00
25560;BME280;13450;49.374;8.584;2023-01-31T00:27:33;101531.50;;;2.20;100.00
25560;BME280;13450;49.374;8.584;2023-01-31T00:29:58;101534.13;;;2.20;100.00
25560;BME280;13450;49.374;8.584;2023-01-31T00:32:27;101533.31;;;2.20;100.00
25560;BME280;13450;49.374;8.584;2023-01-31T00:34:53;101538.78;;;2.17;100.00
25560;BME280;13450;49.374;8.584;2023-01-31T00:37:19;101531.81;;;2.16;100.00
25560;BME280;13450;49.374;8.584;2023-01-31T00:39:45;101520.63;;;2.12;100.00
25560;BME280;13450;49.374;8.584;2023-01-31T00:42:10;101528.56;;;2.12;100.00
25560;BME280;13450;49.374;8.584;2023-01-31T00:44:35;101531.28;;;2.11;100.00
25560;BME280;13450;49.374;8.584;2023-01-31T00:47:01;101527.78;;;2.10;100.00
25560;BME280;13450;49.374;8.584;2023-01-31T00:49:26;101540.28;;;2.08;100.00
25560;BME280;13450;49.374;8.584;2023-01-31T00:51:52;101523.56;;;2.07;100.00
25560;BME280;13450;49.374;8.584;2023-01-31T00:54:17;101525.34;;;2.07;100.00
25560;BME280;13450;49.374;8.584;2023-01-31T00:56:43;101522.94;;;2.04;100.00
25560;BME280;13450;49.374;8.584;2023-01-31T00:59:11;101513.19;;;2.04;100.00
25560;BME280;13450;49.374;8.584;2023-01-31T01:01:37;101521.13;;;2.04;100.00
25560;BME280;13450;49.374;8.584;2023-01-31T01:04:03;101513.41;;;2.01;100.00
25560;BME280;13450;49.374;8.584;2023-01-31T01:06:29;101526.72;;;2.00;100.00
25560;BME280;13450;49.374;8.584;2023-01-31T01:08:55;101522.50;;;1.97;100.00
25560;BME280;13450;49.374;8.584;2023-01-31T01:11:32;101516.34;;;1.96;100.00
25560;BME280;13450;49.374;8.584;2023-01-31T01:13:59;101525.22;;;1.95;100.00
25560;BME280;13450;49.374;8.584;2023-01-31T01:16:33;101509.38;;;1.95;100.00
25560;BME280;13450;49.374;8.584;2023-01-31T01:19:12;101520.91;;;1.94;100.00
25560;BME280;13450;49.374;8.584;2023-01-31T01:21:37;101519.94;;;1.95;100.00
25560;BME280;13450;49.374;8.584;2023-01-31T01:24:06;101519.19;;;1.93;100.00
25560;BME280;13450;49.374;8.584;2023-01-31T01:26:33;101522.69;;;1.94;100.00
25560;BME280;13450;49.374;8.584;2023-01-31T01:29:00;101522.69;;;1.94;100.00
25560;BME280;13450;49.374;8.584;2023-01-31T01:31:26;101527.09;;;1.93;100.00
25560;BME280;13450;49.374;8.584;2023-01-31T01:33:55;101516.53;;;1.93;100.00
25560;BME280;13450;49.374;8.584;2023-01-31T01:36:22;101519.19;;;1.93;100.00
25560;BME280;13450;49.374;8.584;2023-01-31T01:38:48;101525.44;;;1.92;100.00
25560;BME280;13450;49.374;8.584;2023-01-31T01:41:14;101522.06;;;1.90;100.00
25560;BME280;13450;49.374;8.584;2023-01-31T01:43:46;101530.16;;;1.87;100.00
25560;BME280;13450;49.374;8.584;2023-01-31T01:46:16;101526.78;;;1.85;100.00
25560;BME280;13450;49.374;8.584;2023-01-31T01:48:45;101526.78;;;1.85;100.00
25560;BME280;13450;49.374;8.584;2023-01-31T01:51:12;101527.72;;;1.84;100.00
25560;BME280;13450;49.374;8.584;2023-01-31T01:53:42;101529.63;;;1.82;100.00
25560;BME280;13450;49.374;8.584;2023-01-31T01:56:12;101538.50;;;1.81;100.00
25560;BME280;13450;49.374;8.584;2023-01-31T01:58:47;101540.19;;;1.82;100.00
25560;BME280;13450;49.374;8.584;2023-01-31T02:01:16;101538.38;;;1.82;100.00
25560;BME280;13450;49.374;8.584;2023-01-31T02:03:42;101544.41;;;1.85;100.00
25560;BME280;13450;49.374;8.584;2023-01-31T02:06:10;101541.78;;;1.85;100.00
25560;BME280;13450;49.374;8.584;2023-01-31T02:08:37;101544.41;;;1.85;100.00
25560;BME280;13450;49.374;8.584;2023-01-31T02:13:51;101546.97;;;1.86;100.00
25560;BME280;13450;49.374;8.584;2023-01-31T02:16:17;101544.31;;;1.86;100.00
25560;BME280;13450;49.374;8.584;2023-01-31T02:18:44;101545.28;;;1.85;100.00
25560;BME280;13450;49.374;8.584;2023-01-31T02:26:58;101550.56;;;1.85;100.00
25560;BME280;13450;49.374;8.584;2023-01-31T02:32:46;101549.69;;;1.85;100.00
25560;BME280;13450;49.374;8.584;2023-01-31T02:43:50;101537.84;;;1.77;100.00
25560;BME280;13450;49.374;8.584;2023-01-31T02:54:54;101540.97;;;1.69;100.00
25560;BME280;13450;49.374;8.584;2023-01-31T02:57:51;101536.75;;;1.67;100.00
25560;BME280;13450;49.374;8.584;2023-01-31T03:00:19;101532.44;;;1.66;100.00
25560;BME280;13450;49.374;8.584;2023-01-31T03:02:46;101539.59;;;1.64;100.00
25560;BME280;13450;49.374;8.584;2023-01-31T03:05:14;101525.75;;;1.60;100.00
25560;BME280;13450;49.374;8.584;2023-01-31T03:07:46;101538.22;;;1.58;100.00
25560;BME280;13450;49.374;8.584;2023-01-31T03:14:02;101538.50;;;1.53;100.00
25560;BME280;13450;49.374;8.584;2023-01-31T03:16:09;101525.38;;;1.52;100.00
25560;BME280;13450;49.374;8.584;2023-01-31T03:21:38;101536.44;;;1.44;100.00
25560;BME280;13450;49.374;8.584;2023-01-31T03:24:08;101531.56;;;1.38;100.00
25560;BME280;13450;49.374;8.584;2023-01-31T03:26:34;101533.00;;;1.29;100.00
25560;BME280;13450;49.374;8.584;2023-01-31T03:29:00;101540.34;;;1.24;100.00
25560;BME280;13450;49.374;8.584;2023-01-31T03:31:35;101550.34;;;1.19;100.00
25560;BME280;13450;49.374;8.584;2023-01-31T03:34:07;101554.41;;;1.10;100.00
25560;BME280;13450;49.374;8.584;2023-01-31T03:39:52;101559.41;;;1.00;100.00
25560;BME280;13450;49.374;8.584;2023-01-31T03:42:36;101554.72;;;0.90;100.00
25560;BME280;13450;49.374;8.584;2023-01-31T03:45:26;101557.59;;;0.86;100.00
25560;BME280;13450;49.374;8.584;2023-01-31T03:47:55;101566.72;;;0.80;100.00
25560;BME280;13450;49.374;8.584;2023-01-31T03:50:30;101569.75;;;0.74;100.00
25560;BME280;13450;49.374;8.584;2023-01-31T03:53:11;101577.84;;;0.71;100.00
25560;BME280;13450;49.374;8.584;2023-01-31T03:55:51;101573.69;;;0.67;100.00
25560;BME280;13450;49.374;8.584;2023-01-31T03:58:21;101575.59;;;0.64;100.00
25560;BME280;13450;49.374;8.584;2023-01-31T04:00:53;101572.38;;;0.59;100.00
25560;BME280;13450;49.374;8.584;2023-01-31T04:05:47;101581.94;;;0.46;100.00
25560;BME280;13450;49.374;8.584;2023-01-31T04:08:15;101585.88;;;0.38;100.00
25560;BME280;13450;49.374;8.584;2023-01-31T04:10:41;101590.41;;;0.36;100.00
25560;BME280;13450;49.374;8.584;2023-01-31T04:13:07;101577.47;;;0.32;100.00
25560;BME280;13450;49.374;8.584;2023-01-31T04:15:33;101583.69;;;0.31;100.00
25560;BME280;13450;49.374;8.584;2023-01-31T04:17:59;101576.06;;;0.26;100.00
25560;BME280;13450;49.374;8.584;2023-01-31T04:20:24;101585.75;;;0.25;100.00
25560;BME280;13450;49.374;8.584;2023-01-31T04:22:49;101592.22;;;0.20;100.00
25560;BME280;13450;49.374;8.584;2023-01-31T04:25:15;101589.00;;;0.15;100.00
25560;BME280;13450;49.374;8.584;2023-01-31T04:27:40;101582.31;;;0.09;100.00
25560;BME280;13450;49.374;8.584;2023-01-31T04:30:09;101582.38;;;0.07;100.00
25560;BME280;13450;49.374;8.584;2023-01-31T04:32:35;101583.41;;;0.05;100.00
25560;BME280;13450;49.374;8.584;2023-01-31T04:35:04;101588.75;;;0.03;100.00
25560;BME280;13450;49.374;8.584;2023-01-31T04:37:29;101586.50;;;-0.03;100.00
25560;BME280;13450;49.374;8.584;2023-01-31T04:39:55;101584.03;;;-0.06;100.00
25560;BME280;13450;49.374;8.584;2023-01-31T04:42:21;101592.94;;;-0.09;100.00
25560;BME280;13450;49.374;8.584;2023-01-31T04:44:46;101593.97;;;-0.11;100.00
25560;BME280;13450;49.374;8.584;2023-01-31T04:47:12;101585.13;;;-0.10;100.00
25560;BME280;13450;49.374;8.584;2023-01-31T04:49:37;101578.34;;;-0.15;100.00
25560;BME280;13450;49.374;8.584;2023-01-31T04:52:03;101577.75;;;-0.20;100.00
25560;BME280;13450;49.374;8.584;2023-01-31T04:54:28;101586.75;;;-0.24;100.00
25560;BME280;13450;49.374;8.584;2023-01-31T04:56:54;101582.44;;;-0.25;100.00
25560;BME280;13450;49.374;8.584;2023-01-31T04:59:20;101587.03;;;-0.29;100.00
25560;BME280;13450;49.374;8.584;2023-01-31T05:01:45;101578.38;;;-0.31;100.00
25560;BME280;13450;49.374;8.584;2023-01-31T05:04:10;101576.69;;;-0.32;100.00
25560;BME280;13450;49.374;8.584;2023-01-31T05:06:36;101572.44;;;-0.34;100.00
25560;BME280;13450;49.374;8.584;2023-01-31T05:09:04;101577.78;;;-0.36;100.00
25560;BME280;13450;49.374;8.584;2023-01-31T05:11:32;101577.84;;;-0.37;100.00
25560;BME280;13450;49.374;8.584;2023-01-31T05:13:58;101567.69;;;-0.44;100.00
25560;BME280;13450;49.374;8.584;2023-01-31T05:16:23;101566.91;;;-0.46;100.00
25560;BME280;13450;49.374;8.584;2023-01-31T05:18:49;101569.88;;;-0.52;100.00
25560;BME280;13450;49.374;8.584;2023-01-31T05:21:17;101573.63;;;-0.56;100.00
25560;BME280;13450;49.374;8.584;2023-01-31T05:23:43;101572.94;;;-0.60;100.00
25560;BME280;13450;49.374;8.584;2023-01-31T05:26:08;101569.53;;;-0.62;100.00
25560;BME280;13450;49.374;8.584;2023-01-31T05:28:33;101570.63;;;-0.66;100.00
25560;BME280;13450;49.374;8.584;2023-01-31T05:31:05;101570.81;;;-0.69;100.00
25560;BME280;13450;49.374;8.584;2023-01-31T05:33:32;101571.06;;;-0.74;100.00
25560;BME280;13450;49.374;8.584;2023-01-31T05:35:58;101562.44;;;-0.76;100.00
25560;BME280;13450;49.374;8.584;2023-01-31T05:38:23;101564.28;;;-0.78;100.00
25560;BME280;13450;49.374;8.584;2023-01-31T05:40:49;101563.53;;;-0.80;100.00
25560;BME280;13450;49.374;8.584;2023-01-31T05:43:15;101566.66;;;-0.89;100.00
25560;BME280;13450;49.374;8.584;2023-01-31T05:45:41;101567.56;;;-0.90;100.00
25560;BME280;13450;49.374;8.584;2023-01-31T05:48:07;101576.44;;;-0.93;100.00
25560;BME280;13450;49.374;8.584;2023-01-31T05:50:35;101575.78;;;-0.97;100.00
25560;BME280;13450;49.374;8.584;2023-01-31T05:53:03;101586.44;;;-1.00;100.00
25560;BME280;13450;49.374;8.584;2023-01-31T05:55:29;101586.63;;;-1.03;100.00
25560;BME280;13450;49.374;8.584;2023-01-31T05:57:55;101585.75;;;-1.03;100.00
25560;BME280;13450;49.374;8.584;2023-01-31T06:00:21;101583.22;;;-1.05;100.00
25560;BME280;13450;49.374;8.584;2023-01-31T06:02:49;101578.75;;;-1.03;100.00
25560;BME280;13450;49.374;8.584;2023-01-31T06:05:14;101577.13;;;-1.06;100.00
25560;BME280;13450;49.374;8.584;2023-01-31T06:07:41;101574.56;;;-1.07;100.00
25560;BME280;13450;49.374;8.584;2023-01-31T06:10:08;101571.88;;;-1.06;100.00
25560;BME280;13450;49.374;8.584;2023-01-31T06:12:34;101580.59;;;-1.05;100.00
25560;BME280;13450;49.374;8.584;2023-01-31T06:15:00;101580.44;;;-1.02;100.00
25560;BME280;13450;49.374;8.584;2023-01-31T06:17:28;101587.91;;;-0.94;100.00
25560;BME280;13450;49.374;8.584;2023-01-31T06:19:53;101587.69;;;-0.89;100.00
25560;BME280;13450;49.374;8.584;2023-01-31T06:22:18;101591.66;;;-0.82;100.00
25560;BME280;13450;49.374;8.584;2023-01-31T06:24:44;101595.59;;;-0.73;100.00
25560;BME280;13450;49.374;8.584;2023-01-31T06:27:09;101596.94;;;-0.66;100.00
25560;BME280;13450;49.374;8.584;2023-01-31T06:29:35;101594.81;;;-0.59;100.00
25560;BME280;13450;49.374;8.584;2023-01-31T06:32:01;101596.34;;;-0.55;100.00
25560;BME280;13450;49.374;8.584;2023-01-31T06:34:26;101591.53;;;-0.47;100.00
25560;BME280;13450;49.374;8.584;2023-01-31T06:36:55;101602.47;;;-0.38;100.00
25560;BME280;13450;49.374;8.584;2023-01-31T06:39:22;101602.97;;;-0.32;100.00
25560;BME280;13450;49.374;8.584;2023-01-31T06:41:50;101608.91;;;-0.28;100.00
25560;BME280;13450;49.374;8.584;2023-01-31T06:44:15;101602.47;;;-0.22;100.00
25560;BME280;13450;49.374;8.584;2023-01-31T06:46:40;101611.81;;;-0.17;100.00
25560;BME280;13450;49.374;8.584;2023-01-31T06:49:06;101599.22;;;-0.11;100.00
25560;BME280;13450;49.374;8.584;2023-01-31T06:51:34;101599.97;;;-0.09;100.00
25560;BME280;13450;49.374;8.584;2023-01-31T06:53:59;101609.16;;;-0.01;100.00
25560;BME280;13450;49.374;8.584;2023-01-31T06:56:24;101608.06;;;0.04;100.00
25560;BME280;13450;49.374;8.584;2023-01-31T06:58:50;101605.13;;;0.08;100.00
25560;BME280;13450;49.374;8.584;2023-01-31T07:01:15;101608.19;;;0.17;100.00
25560;BME280;13450;49.374;8.584;2023-01-31T07:03:40;101612.25;;;0.22;100.00
25560;BME280;13450;49.374;8.584;2023-01-31T07:06:07;101606.72;;;0.27;100.00
25560;BME280;13450;49.374;8.584;2023-01-31T07:08:34;101614.28;;;0.33;100.00
25560;BME280;13450;49.374;8.584;2023-01-31T07:11:02;101610.63;;;0.36;100.00
25560;BME280;13450;49.374;8.584;2023-01-31T07:13:28;101617.47;;;0.38;100.00
25560;BME280;13450;49.374;8.584;2023-01-31T07:15:58;101616.53;;;0.39;100.00
25560;BME280;13450;49.374;8.584;2023-01-31T07:18:23;101614.59;;;0.43;100.00
25560;BME280;13450;49.374;8.584;2023-01-31T07:20:49;101615.41;;;0.44;100.00
25560;BME280;13450;49.374;8.584;2023-01-31T07:23:14;101624.19;;;0.44;100.00
25560;BME280;13450;49.374;8.584;2023-01-31T07:25:42;101626.91;;;0.43;100.00
25560;BME280;13450;49.374;8.584;2023-01-31T07:28:10;101629.72;;;0.39;100.00
25560;BME280;13450;49.374;8.584;2023-01-31T07:30:36;101632.63;;;0.35;100.00
25560;BME280;13450;49.374;8.584;2023-01-31T07:33:01;101642.66;;;0.28;100.00
25560;BME280;13450;49.374;8.584;2023-01-31T07:35:29;101641.97;;;0.24;100.00
25560;BME280;13450;49.374;8.584;2023-01-31T07:37:54;101643.19;;;0.19;100.00
25560;BME280;13450;49.374;8.584;2023-01-31T07:40:20;101637.22;;;0.15;100.00
25560;BME280;13450;49.374;8.584;2023-01-31T07:42:46;101650.47;;;0.13;100.00
25560;BME280;13450;49.374;8.584;2023-01-31T07:45:13;101651.19;;;0.17;100.00
25560;BME280;13450;49.374;8.584;2023-01-31T07:47:39;101649.47;;;0.16;100.00
25560;BME280;13450;49.374;8.584;2023-01-31T07:50:05;101652.00;;;0.18;100.00
25560;BME280;13450;49.374;8.584;2023-01-31T07:52:31;101653.72;;;0.19;100.00
25560;BME280;13450;49.374;8.584;2023-01-31T07:54:56;101647.53;;;0.20;100.00
25560;BME280;13450;49.374;8.584;2023-01-31T07:57:29;101659.66;;;0.22;100.00
25560;BME280;13450;49.374;8.584;2023-01-31T07:59:54;101657.09;;;0.21;100.00
25560;BME280;13450;49.374;8.584;2023-01-31T08:02:20;101654.09;;;0.27;100.00
25560;BME280;13450;49.374;8.584;2023-01-31T08:05:04;101656.59;;;0.30;100.00
25560;BME280;13450;49.374;8.584;2023-01-31T08:07:29;101647.00;;;0.29;100.00
25560;BME280;13450;49.374;8.584;2023-01-31T08:09:55;101647.06;;;0.28;100.00
25560;BME280;13450;49.374;8.584;2023-01-31T08:12:20;101640.94;;;0.27;100.00
25560;BME280;13450;49.374;8.584;2023-01-31T08:14:48;101646.41;;;0.24;100.00
25560;BME280;13450;49.374;8.584;2023-01-31T08:17:13;101656.09;;;0.23;100.00
25560;BME280;13450;49.374;8.584;2023-01-31T08:19:38;101650.81;;;0.23;100.00
25560;BME280;13450;49.374;8.584;2023-01-31T08:22:04;101652.50;;;0.24;100.00
25560;BME280;13450;49.374;8.584;2023-01-31T08:24:31;101658.28;;;0.31;100.00
25560;BME280;13450;49.374;8.584;2023-01-31T08:26:56;101655.09;;;0.41;100.00
25560;BME280;13450;49.374;8.584;2023-01-31T08:29:22;101657.22;;;0.50;100.00
25560;BME280;13450;49.374;8.584;2023-01-31T08:31:48;101658.38;;;0.60;100.00
25560;BME280;13450;49.374;8.584;2023-01-31T08:34:14;101662.00;;;0.74;100.00
25560;BME280;13450;49.374;8.584;2023-01-31T08:36:39;101664.16;;;0.82;100.00
25560;BME280;13450;49.374;8.584;2023-01-31T08:39:05;101662.88;;;1.03;100.00
25560;BME280;13450;49.374;8.584;2023-01-31T08:41:32;101656.41;;;1.24;100.00
25560;BME280;13450;49.374;8.584;2023-01-31T08:43:58;101658.28;;;1.51;100.00
25560;BME280;13450;49.374;8.584;2023-01-31T08:46:26;101641.75;;;1.76;100.00
25560;BME280;13450;49.374;8.584;2023-01-31T08:48:51;101641.22;;;1.99;100.00
25560;BME280;13450;49.374;8.584;2023-01-31T08:51:16;101636.00;;;2.25;100.00
25560;BME280;13450;49.374;8.584;2023-01-31T08:53:43;101629.06;;;2.37;100.00
25560;BME280;13450;49.374;8.584;2023-01-31T08:56:12;101633.88;;;2.44;100.00
25560;BME280;13450;49.374;8.584;2023-01-31T08:58:42;101627.19;;;2.52;100.00
25560;BME280;13450;49.374;8.584;2023-01-31T09:01:10;101635.66;;;2.44;100.00
25560;BME280;13450;49.374;8.584;2023-01-31T09:03:37;101642.88;;;2.55;100.00
25560;BME280;13450;49.374;8.584;2023-01-31T09:06:09;101637.56;;;2.55;100.00
25560;BME280;13450;49.374;8.584;2023-01-31T09:08:36;101650.69;;;2.56;100.00
25560;BME280;13450;49.374;8.584;2023-01-31T09:11:01;101640.94;;;2.57;100.00
25560;BME280;13450;49.374;8.584;2023-01-31T09:13:28;101634.94;;;2.55;100.00
25560;BME280;13450;49.374;8.584;2023-01-31T09:16:05;101646.22;;;2.57;100.00
25560;BME280;13450;49.374;8.584;2023-01-31T09:18:32;101644.69;;;2.67;100.00
25560;BME280;13450;49.374;8.584;2023-01-31T09:21:13;101638.44;;;2.81;100.00
25560;BME280;13450;49.374;8.584;2023-01-31T09:23:39;101634.00;;;2.95;100.00
25560;BME280;13450;49.374;8.584;2023-01-31T09:26:10;101630.72;;;2.91;100.00
25560;BME280;13450;49.374;8.584;2023-01-31T09:28:35;101648.09;;;2.82;100.00
25560;BME280;13450;49.374;8.584;2023-01-31T09:31:02;101647.19;;;2.56;100.00
25560;BME280;13450;49.374;8.584;2023-01-31T09:33:32;101648.16;;;2.68;100.00
25560;BME280;13450;49.374;8.584;2023-01-31T09:36:00;101643.09;;;2.91;100.00
25560;BME280;13450;49.374;8.584;2023-01-31T09:38:26;101640.88;;;2.97;100.00
25560;BME280;13450;49.374;8.584;2023-01-31T09:40:53;101636.34;;;3.12;100.00
25560;BME280;13450;49.374;8.584;2023-01-31T09:43:22;101636.97;;;2.90;100.00
25560;BME280;13450;49.374;8.584;2023-01-31T09:45:49;101628.72;;;2.95;100.00
25560;BME280;13450;49.374;8.584;2023-01-31T09:48:21;101633.50;;;3.03;100.00
25560;BME280;13450;49.374;8.584;2023-01-31T09:50:51;101622.81;;;2.91;100.00
25560;BME280;13450;49.374;8.584;2023-01-31T09:53:21;101607.78;;;2.92;100.00
25560;BME280;13450;49.374;8.584;2023-01-31T09:55:55;101617.31;;;2.94;100.00
25560;BME280;13450;49.374;8.584;2023-01-31T10:09:26;101624.72;;;3.02;100.00
25560;BME280;13450;49.374;8.584;2023-01-31T10:11:59;101636.66;;;3.08;100.00
25560;BME280;13450;49.374;8.584;2023-01-31T10:14:35;101620.06;;;3.19;100.00
25560;BME280;13450;49.374;8.584;2023-01-31T10:17:10;101611.56;;;3.26;100.00
25560;BME280;13450;49.374;8.584;2023-01-31T10:19:54;101618.34;;;3.31;100.00
25560;BME280;13450;49.374;8.584;2023-01-31T10:22:45;101626.03;;;3.34;100.00
25560;BME280;13450;49.374;8.584;2023-01-31T10:25:37;101635.25;;;3.41;100.00
25560;BME280;13450;49.374;8.584;2023-01-31T10:28:30;101636.41;;;3.37;100.00
25560;BME280;13450;49.374;8.584;2023-01-31T10:42:05;101604.16;;;3.93;100.00
25560;BME280;13450;49.374;8.584;2023-01-31T10:44:43;101600.09;;;4.01;100.00
25560;BME280;13450;49.374;8.584;2023-01-31T10:47:15;101596.91;;;4.44;100.00
25560;BME280;13450;49.374;8.584;2023-01-31T10:49:49;101581.25;;;4.76;100.00
25560;BME280;13450;49.374;8.584;2023-01-31T10:57:28;101570.88;;;4.50;100.00
25560;BME280;13450;49.374;8.584;2023-01-31T10:59:53;101579.53;;;4.40;100.00
25560;BME280;13450;49.374;8.584;2023-01-31T11:02:25;101574.00;;;4.08;100.00
25560;BME280;13450;49.374;8.584;2023-01-31T11:04:54;101583.81;;;3.94;100.00
25560;BME280;13450;49.374;8.584;2023-01-31T11:07:20;101593.56;;;3.93;100.00
25560;BME280;13450;49.374;8.584;2023-01-31T11:09:49;101584.09;;;3.78;100.00
25560;BME280;13450;49.374;8.584;2023-01-31T11:12:20;101581.56;;;3.76;100.00
25560;BME280;13450;49.374;8.584;2023-01-31T11:15:06;101585.84;;;3.66;100.00
25560;BME280;13450;49.374;8.584;2023-01-31T11:17:34;101575.03;;;3.69;100.00
25560;BME280;13450;49.374;8.584;2023-01-31T11:20:03;101565.09;;;3.60;100.00
25560;BME280;13450;49.374;8.584;2023-01-31T11:22:32;101556.19;;;3.61;100.00
25560;BME280;13450;49.374;8.584;2023-01-31T11:25:01;101550.91;;;3.61;100.00
25560;BME280;13450;49.374;8.584;2023-01-31T11:27:41;101545.97;;;3.56;100.00
25560;BME280;13450;49.374;8.584;2023-01-31T11:30:27;101543.31;;;3.56;100.00
25560;BME280;13450;49.374;8.584;2023-01-31T11:32:54;101515.75;;;3.59;100.00
25560;BME280;13450;49.374;8.584;2023-01-31T11:40:35;101505.97;;;3.72;100.00
25560;BME280;13450;49.374;8.584;2023-01-31T11:43:03;101499.38;;;3.78;100.00
25560;BME280;13450;49.374;8.584;2023-01-31T11:45:42;101488.78;;;3.78;100.00
25560;BME280;13450;49.374;8.584;2023-01-31T11:48:17;101509.09;;;3.77;100.00
25560;BME280;13450;49.374;8.584;2023-01-31T11:50:50;101504.03;;;3.74;100.00
25560;BME280;13450;49.374;8.584;2023-01-31T11:54:09;101503.38;;;3.84;100.00
25560;BME280;13450;49.374;8.584;2023-01-31T11:56:27;101496.63;;;3.91;100.00
25560;BME280;13450;49.374;8.584;2023-01-31T11:58:57;101486.91;;;3.91;100.00
25560;BME280;13450;49.374;8.584;2023-01-31T12:01:26;101474.69;;;3.77;100.00
25560;BME280;13450;49.374;8.584;2023-01-31T12:06:40;101467.22;;;3.71;100.00
25560;BME280;13450;49.374;8.584;2023-01-31T12:09:19;101457.69;;;3.69;100.00
25560;BME280;13450;49.374;8.584;2023-01-31T12:11:53;101439.03;;;3.70;100.00
25560;BME280;13450;49.374;8.584;2023-01-31T12:14:21;101456.38;;;3.74;100.00
25560;BME280;13450;49.374;8.584;2023-01-31T12:16:51;101461.44;;;3.77;100.00
25560;BME280;13450;49.374;8.584;2023-01-31T12:19:37;101444.84;;;3.75;100.00
25560;BME280;13450;49.374;8.584;2023-01-31T12:22:11;101443.41;;;3.83;100.00
25560;BME280;13450;49.374;8.584;2023-01-31T12:27:33;101420.31;;;3.85;100.00
25560;BME280;13450;49.374;8.584;2023-01-31T12:33:17;101410.47;;;3.98;100.00
25560;BME280;13450;49.374;8.584;2023-01-31T12:42:03;101418.63;;;3.95;100.00
25560;BME280;13450;49.374;8.584;2023-01-31T12:46:43;101423.66;;;3.87;100.00
25560;BME280;13450;49.374;8.584;2023-01-31T12:55:24;101433.00;;;3.68;100.00
25560;BME280;13450;49.374;8.584;2023-01-31T13:01:21;101430.56;;;3.65;100.00
25560;BME280;13450;49.374;8.584;2023-01-31T13:03:35;101428.91;;;3.64;100.00
25560;BME280;13450;49.374;8.584;2023-01-31T13:06:09;101426.53;;;3.72;100.00
25560;BME280;13450;49.374;8.584;2023-01-31T13:08:42;101431.09;;;3.70;100.00
25560;BME280;13450;49.374;8.584;2023-01-31T13:11:26;101423.59;;;3.64;100.00
25560;BME280;13450;49.374;8.584;2023-01-31T13:14:00;101426.34;;;3.62;100.00
25560;BME280;13450;49.374;8.584;2023-01-31T13:16:41;101428.00;;;3.52;100.00
25560;BME280;13450;49.374;8.584;2023-01-31T13:19:38;101420.19;;;3.50;100.00
25560;BME280;13450;49.374;8.584;2023-01-31T13:22:12;101402.13;;;3.44;100.00
25560;BME280;13450;49.374;8.584;2023-01-31T13:24:40;101388.41;;;3.39;100.00
25560;BME280;13450;49.374;8.584;2023-01-31T13:27:20;101376.56;;;3.32;100.00
25560;BME280;13450;49.374;8.584;2023-01-31T13:29:52;101361.16;;;3.25;100.00
25560;BME280;13450;49.374;8.584;2023-01-31T13:32:32;101358.47;;;3.14;100.00
25560;BME280;13450;49.374;8.584;2023-01-31T13:37:37;101373.38;;;3.15;100.00
25560;BME280;13450;49.374;8.584;2023-01-31T13:40:24;101350.88;;;3.09;100.00
25560;BME280;13450;49.374;8.584;2023-01-31T13:42:50;101336.59;;;3.12;100.00
25560;BME280;13450;49.374;8.584;2023-01-31T13:45:24;101335.84;;;3.10;100.00
25560;BME280;13450;49.374;8.584;2023-01-31T13:47:59;101335.50;;;3.14;100.00
25560;BME280;13450;49.374;8.584;2023-01-31T13:50:49;101334.31;;;3.19;100.00
25560;BME280;13450;49.374;8.584;2023-01-31T13:53:28;101347.41;;;3.20;100.00
25560;BME280;13450;49.374;8.584;2023-01-31T13:55:59;101347.19;;;3.23;100.00
25560;BME280;13450;49.374;8.584;2023-01-31T13:58:30;101352.94;;;3.17;100.00
25560;BME280;13450;49.374;8.584;2023-01-31T14:01:03;101361.97;;;3.14;100.00
25560;BME280;13450;49.374;8.584;2023-01-31T14:11:50;101355.72;;;3.16;100.00
25560;BME280;13450;49.374;8.584;2023-01-31T14:17:14;101353.38;;;3.11;100.00
25560;BME280;13450;49.374;8.584;2023-01-31T14:20:05;101364.81;;;3.11;100.00
25560;BME280;13450;49.374;8.584;2023-01-31T14:22:35;101361.22;;;3.12;100.00
25560;BME280;13450;49.374;8.584;2023-01-31T14:32:48;101348.34;;;3.08;100.00
25560;BME280;13450;49.374;8.584;2023-01-31T14:43:34;101342.38;;;3.17;100.00
25560;BME280;13450;49.374;8.584;2023-01-31T14:46:17;101349.34;;;3.18;100.00
25560;BME280;13450;49.374;8.584;2023-01-31T14:49:02;101344.53;;;3.23;100.00
25560;BME280;13450;49.374;8.584;2023-01-31T14:51:49;101356.09;;;3.22;100.00
25560;BME280;13450;49.374;8.584;2023-01-31T14:54:40;101349.63;;;3.26;100.00
25560;BME280;13450;49.374;8.584;2023-01-31T14:57:21;101353.94;;;3.27;100.00
25560;BME280;13450;49.374;8.584;2023-01-31T15:02:58;101351.19;;;3.29;100.00
25560;BME280;13450;49.374;8.584;2023-01-31T15:05:45;101339.41;;;3.33;100.00
25560;BME280;13450;49.374;8.584;2023-01-31T15:16:01;101350.59;;;3.37;100.00
25560;BME280;13450;49.374;8.584;2023-01-31T15:18:28;101347.97;;;3.37;100.00
25560;BME280;13450;49.374;8.584;2023-01-31T15:20:59;101346.28;;;3.36;100.00